Time;durP1;ratioP1;P1;durP2;ratioP2;P2;SDS_P1;SDS_P2;PMS_P1;PMS_P2;Temp;Humidity;BMP_temperature;BMP_pressure;BME280_temperature;BME280_humidity;BME280_pressure;Samples;Min_cycle;Max_cycle;Signal;HPM_P1;HPM_P2
2022/09/20 00:01:27;;;;;;;11.13;2.10;;;10.00;99.90;;;;;;5072726;28;20049;-63
2022/09/20 00:03:53;;;;;;;;;;;10.30;99.90;;;;;;5073285;28;20055;-63
2022/09/20 00:06:22;;;;;;;9.73;1.95;;;10.30;99.90;;;;;;5073366;28;20279;-63
2022/09/20 00:08:48;;;;;;;10.27;2.15;;;10.10;99.90;;;;;;5071551;28;20159;-63
2022/09/20 00:11:18;;;;;;;8.15;1.88;;;10.30;99.90;;;;;;5072939;28;20474;-63
2022/09/20 00:13:48;;;;;;;15.43;2.08;;;9.80;99.90;;;;;;5072788;28;20057;-63
2022/09/20 00:16:21;;;;;;;9.30;2.10;;;10.20;99.90;;;;;;5072794;28;20051;-63
2022/09/20 00:18:54;;;;;;;5.72;1.60;;;9.60;99.90;;;;;;5073092;28;20053;-63
2022/09/20 00:21:28;;;;;;;5.97;1.80;;;9.80;99.90;;;;;;5072777;28;20128;-63
2022/09/20 00:23:57;;;;;;;7.07;1.98;;;9.90;99.90;;;;;;5072963;28;20111;-63
2022/09/20 00:26:24;;;;;;;8.23;2.20;;;9.60;99.90;;;;;;5072916;28;20097;-63
2022/09/20 00:28:50;;;;;;;10.73;2.00;;;9.00;99.90;;;;;;5072827;28;20043;-62
2022/09/20 00:31:16;;;;;;;7.30;2.55;;;9.60;99.90;;;;;;5073098;28;20120;-63
2022/09/20 00:36:28;;;;;;;11.85;2.10;;;9.50;99.90;;;;;;5072585;28;20141;-63
2022/09/20 00:38:55;;;;;;;7.80;2.13;;;9.60;99.90;;;;;;5072477;28;20080;-63
2022/09/20 00:41:22;;;;;;;12.45;2.38;;;9.40;99.90;;;;;;5071278;28;20127;-63
2022/09/20 00:43:52;;;;;;;16.13;2.40;;;9.20;99.90;;;;;;5070190;28;20044;-63
2022/09/20 00:46:17;;;;;;;11.98;1.80;;;9.50;99.90;;;;;;5072472;28;20045;-63
2022/09/20 00:48:43;;;;;;;8.75;2.00;;;9.50;99.90;;;;;;5072555;28;20032;-62
2022/09/20 00:51:12;;;;;;;9.60;2.20;;;9.00;99.90;;;;;;5072311;28;20049;-63
2022/09/20 00:53:43;;;;;;;13.40;2.17;;;9.50;99.90;;;;;;5075527;28;20033;-62
2022/09/20 00:56:18;;;;;;;13.82;2.45;;;9.20;99.90;;;;;;5076425;28;20098;-62
2022/09/20 00:59:00;;;;;;;13.40;2.20;;;8.60;99.90;;;;;;5076040;28;20082;-62
2022/09/20 01:01:26;;;;;;;7.57;1.67;;;;;;;;;;5075912;28;20036;-62
2022/09/20 01:03:53;;;;;;;4.70;1.70;;;9.00;99.90;;;;;;5076014;28;20047;-62
2022/09/20 01:06:20;;;;;;;11.63;1.98;;;;;;;;;;5075874;28;20511;-62
2022/09/20 01:08:50;;;;;;;9.23;1.88;;;9.30;99.90;;;;;;5076125;28;20044;-63
2022/09/20 01:11:17;;;;;;;8.30;2.47;;;9.40;99.90;;;;;;5075763;28;20063;-62
2022/09/20 01:13:43;;;;;;;13.23;2.25;;;;;;;;;;5075721;28;20057;-62
2022/09/20 01:16:11;;;;;;;7.93;1.75;;;9.40;99.90;;;;;;5074456;28;20055;-62
2022/09/20 01:18:38;;;;;;;8.57;2.13;;;9.00;99.90;;;;;;5075909;28;20400;-63
2022/09/20 01:21:06;;;;;;;12.45;2.20;;;9.10;99.90;;;;;;5075649;28;20048;-58
2022/09/20 01:24:01;;;;;;;9.40;2.03;;;8.90;99.90;;;;;;5075785;28;20093;-58
2022/09/20 01:26:53;;;;;;;8.38;2.03;;;8.50;99.90;;;;;;5074608;28;20048;-58
2022/09/20 01:29:35;;;;;;;10.75;1.92;;;8.80;99.90;;;;;;5074612;28;20070;-58
2022/09/20 01:32:07;;;;;;;11.63;2.10;;;8.50;99.90;;;;;;5075212;28;20159;-58
2022/09/20 01:34:36;;;;;;;14.15;2.22;;;8.60;99.90;;;;;;5075816;28;20040;-58
2022/09/20 01:37:02;;;;;;;7.90;1.80;;;;;;;;;;5075460;28;20036;-58
2022/09/20 01:39:55;;;;;;;9.38;1.90;;;8.70;99.90;;;;;;5075615;28;20039;-58
2022/09/20 01:42:30;;;;;;;11.48;1.90;;;8.60;99.90;;;;;;5075378;28;20360;-58
2022/09/20 01:45:09;;;;;;;8.35;1.83;;;8.60;99.90;;;;;;5075341;28;20477;-58
2022/09/20 01:47:43;;;;;;;6.70;1.80;;;8.50;99.90;;;;;;5075251;28;20098;-58
2022/09/20 01:50:34;;;;;;;10.10;2.10;;;8.50;99.90;;;;;;5075318;28;20045;-58
2022/09/20 01:53:22;;;;;;;6.50;1.80;;;8.50;99.90;;;;;;5075237;28;20105;-58
2022/09/20 01:56:17;;;;;;;9.02;2.33;;;8.40;99.90;;;;;;5074997;28;20166;-58
2022/09/20 01:59:06;;;;;;;6.95;2.00;;;8.50;99.90;;;;;;5075236;28;20040;-58
2022/09/20 02:01:50;;;;;;;6.85;1.98;;;9.10;99.90;;;;;;5075198;28;20036;-58
2022/09/20 02:04:35;;;;;;;11.23;2.10;;;8.70;99.90;;;;;;5075046;28;20048;-58
2022/09/20 02:07:24;;;;;;;10.40;1.80;;;8.40;99.90;;;;;;5075143;28;20036;-58
2022/09/20 02:10:11;;;;;;;10.80;2.00;;;8.20;99.90;;;;;;5075051;28;20169;-58
2022/09/20 02:13:03;;;;;;;12.70;2.30;;;8.40;99.90;;;;;;5074631;28;20057;-58
2022/09/20 02:16:17;;;;;;;10.18;2.00;;;8.30;99.90;;;;;;5074741;28;20052;-58
2022/09/20 02:18:43;;;;;;;10.23;2.17;;;;;;;;;;5052402;28;20060;-58
2022/09/20 02:21:24;;;;;;;10.23;2.08;;;8.30;99.90;;;;;;5052424;28;20551;-58
2022/09/20 02:24:05;;;;;;;11.13;1.92;;;8.30;99.90;;;;;;5052490;28;20493;-58
2022/09/20 02:26:45;;;;;;;8.20;2.13;;;8.40;99.90;;;;;;5052361;28;20048;-58
2022/09/20 02:29:27;;;;;;;7.57;2.15;;;8.40;99.90;;;;;;5052343;28;20056;-58
2022/09/20 02:32:11;;;;;;;6.70;1.90;;;8.40;99.90;;;;;;5052234;28;20045;-58
2022/09/20 02:34:54;;;;;;;12.55;1.83;;;8.40;99.90;;;;;;5052153;28;20048;-58
2022/09/20 02:37:38;;;;;;;9.73;2.00;;;8.40;99.90;;;;;;5052037;28;20401;-58
2022/09/20 02:40:12;;;;;;;13.50;2.30;;;7.20;99.90;;;;;;5052185;28;20063;-58
2022/09/20 02:42:46;;;;;;;8.63;1.80;;;8.00;99.90;;;;;;5052113;28;20048;-58
2022/09/20 02:45:47;;;;;;;10.02;1.98;;;8.10;99.90;;;;;;5051986;28;20052;-58
2022/09/20 02:48:19;;;;;;;11.10;2.17;;;8.20;99.90;;;;;;5052064;28;20110;-59
2022/09/20 02:51:15;;;;;;;9.13;1.90;;;7.60;99.90;;;;;;5051915;28;20152;-58
2022/09/20 02:54:02;;;;;;;12.65;2.10;;;8.00;99.90;;;;;;5015337;28;20562;-58
2022/09/20 02:56:57;;;;;;;11.80;2.10;;;7.70;99.90;;;;;;5074187;28;20098;-58
2022/09/20 02:59:53;;;;;;;9.57;2.25;;;7.90;99.90;;;;;;5071816;28;20049;-59
2022/09/20 03:02:44;;;;;;;10.90;2.40;;;7.90;99.90;;;;;;5074062;28;20051;-61
2022/09/20 03:05:42;;;;;;;6.03;1.88;;;7.80;99.90;;;;;;5073846;28;20043;-58
2022/09/20 03:08:32;;;;;;;8.40;1.80;;;8.80;99.90;;;;;;5072859;28;20048;-59
2022/09/20 03:11:14;;;;;;;8.23;2.15;;;7.70;99.90;;;;;;5073885;28;20058;-58
2022/09/20 03:14:02;;;;;;;22.80;2.25;;;7.70;99.90;;;;;;5073342;28;20124;-58
2022/09/20 03:16:47;;;;;;;10.27;2.00;;;8.30;99.90;;;;;;5073293;28;20068;-59
2022/09/20 03:19:32;;;;;;;8.80;2.08;;;7.60;99.90;;;;;;5073390;28;20503;-58
2022/09/20 03:22:19;;;;;;;8.05;1.98;;;7.70;99.90;;;;;;5072122;28;20053;-62
2022/09/20 03:25:22;;;;;;;8.80;2.30;;;7.60;99.90;;;;;;5073699;28;20032;-62
2022/09/20 03:28:19;;;;;;;9.95;2.25;;;7.40;99.90;;;;;;5073632;28;20116;-62
2022/09/20 03:30:45;;;;;;;8.98;2.20;;;;;;;;;;5073672;28;20104;-62
2022/09/20 03:33:38;;;;;;;9.38;2.17;;;7.60;99.90;;;;;;5073279;28;20123;-62
2022/09/20 03:36:07;;;;;;;8.18;2.10;;;;;;;;;;5072457;28;20485;-62
2022/09/20 03:38:50;;;;;;;8.85;2.20;;;7.40;99.90;;;;;;5073286;28;20072;-62
2022/09/20 03:41:44;;;;;;;12.07;2.45;;;7.50;99.90;;;;;;5073236;28;20037;-61
2022/09/20 03:44:28;;;;;;;11.93;1.90;;;7.40;99.90;;;;;;5073193;28;20032;-62
2022/09/20 03:47:12;;;;;;;7.32;2.15;;;7.30;99.90;;;;;;5072082;28;20040;-62
2022/09/20 03:50:08;;;;;;;10.10;1.90;;;7.40;99.90;;;;;;5073018;28;20119;-62
2022/09/20 03:52:56;;;;;;;9.73;1.90;;;7.50;99.90;;;;;;5071883;28;20072;-62
2022/09/20 03:55:53;;;;;;;8.50;1.92;;;8.00;99.90;;;;;;5073071;28;20040;-62
2022/09/20 03:58:26;;;;;;;9.23;2.05;;;6.70;99.90;;;;;;5073169;28;20048;-62
2022/09/20 04:00:52;;;;;;;7.32;1.98;;;;;;;;;;5073368;28;20127;-62
2022/09/20 04:03:45;;;;;;;5.80;1.77;;;7.50;99.90;;;;;;5073082;28;20519;-62
2022/09/20 04:06:37;;;;;;;5.22;2.05;;;7.10;99.90;;;;;;5072249;28;20093;-62
2022/09/20 04:09:41;;;;;;;7.47;2.08;;;6.60;99.90;;;;;;5071745;28;20041;-58
2022/09/20 04:12:33;;;;;;;9.20;2.22;;;7.40;99.90;;;;;;5072334;28;20411;-58
2022/09/20 04:15:17;;;;;;;6.80;2.20;;;7.20;99.90;;;;;;5068727;28;20514;-58
2022/09/20 04:17:52;;;;;;;5.93;1.90;;;7.30;99.90;;;;;;5073004;28;20040;-58
2022/09/20 04:20:45;;;;;;;7.25;1.80;;;7.60;99.90;;;;;;5071484;28;20040;-62
2022/09/20 04:23:46;;;;;;;7.15;1.85;;;7.50;99.90;;;;;;5070397;28;20051;-62
2022/09/20 04:26:16;;;;;;;6.13;1.90;;;7.40;99.90;;;;;;5072966;28;20400;-62
2022/09/20 04:28:48;;;;;;;6.30;1.98;;;7.20;99.90;;;;;;5076225;28;20515;-62
2022/09/20 04:31:46;;;;;;;15.25;2.22;;;7.30;99.90;;;;;;5076802;28;20040;-62
2022/09/20 04:36:27;;;;;;;10.73;2.10;;;7.30;99.90;;;;;;5076899;28;20036;-62
2022/09/20 04:37:32;;;;;;;8.82;2.05;;;7.20;99.90;;;;;;5076647;28;20384;-62
2022/09/20 04:40:29;;;;;;;7.25;2.20;;;7.20;99.90;;;;;;5076424;28;20044;-62
2022/09/20 04:43:23;;;;;;;11.88;2.05;;;7.10;99.90;;;;;;5076683;28;20388;-62
2022/09/20 04:45:50;;;;;;;8.10;2.33;;;;;;;;;;5076509;28;20049;-62
2022/09/20 04:48:45;;;;;;;5.70;2.13;;;7.30;99.90;;;;;;5076615;28;20041;-62
2022/09/20 04:51:38;;;;;;;5.53;2.20;;;7.20;99.90;;;;;;5076555;28;20040;-62
2022/09/20 04:54:43;;;;;;;6.88;2.25;;;6.50;99.90;;;;;;5076478;28;20083;-62
2022/09/20 04:57:45;;;;;;;9.00;2.67;;;7.40;99.90;;;;;;5076284;28;20043;-62
2022/09/20 05:00:16;;;;;;;8.65;2.47;;;6.60;99.90;;;;;;5075409;28;20488;-62
2022/09/20 05:03:22;;;;;;;8.50;2.20;;;7.30;99.90;;;;;;5051269;28;20401;-62
2022/09/20 05:05:48;;;;;;;9.00;2.42;;;;;;;;;;5058240;28;20025;-62
2022/09/20 05:08:39;;;;;;;8.40;2.80;;;7.40;99.90;;;;;;5073261;28;20119;-62
2022/09/20 05:11:05;;;;;;;10.25;2.75;;;;;;;;;;5063784;28;20385;-61
2022/09/20 05:14:01;;;;;;;11.23;2.67;;;7.50;99.90;;;;;;5072798;28;20052;-61
2022/09/20 05:17:01;;;;;;;10.45;3.00;;;7.60;99.90;;;;;;5072871;28;20060;-61
2022/09/20 05:20:03;;;;;;;13.98;3.40;;;7.80;99.90;;;;;;5074880;28;20401;-62
2022/09/20 05:23:06;;;;;;;17.27;3.08;;;7.80;99.90;;;;;;5073174;28;20109;-62
2022/09/20 05:25:44;;;;;;;11.77;3.20;;;7.70;99.90;;;;;;5074880;28;20046;-61
2022/09/20 05:28:28;;;;;;;9.05;3.30;;;7.90;99.90;;;;;;5073993;28;20040;-62
2022/09/20 05:31:03;;;;;;;9.85;3.17;;;8.10;99.90;;;;;;5075290;28;20043;-62
2022/09/20 05:34:06;;;;;;;14.63;3.97;;;8.20;99.90;;;;;;5075072;28;20044;-62
2022/09/20 05:36:56;;;;;;;10.80;3.47;;;8.00;99.90;;;;;;5075237;28;20114;-62
2022/09/20 05:39:40;;;;;;;10.15;3.40;;;8.40;99.90;;;;;;5074979;28;20043;-58
2022/09/20 05:42:32;;;;;;;14.10;3.50;;;9.40;99.90;;;;;;5075502;28;20032;-58
2022/09/20 05:45:12;;;;;;;11.73;3.08;;;8.70;99.90;;;;;;5075733;28;20040;-58
2022/09/20 05:48:14;;;;;;;10.95;3.10;;;8.80;99.90;;;;;;5074524;28;20518;-58
2022/09/20 05:51:03;;;;;;;12.75;3.63;;;9.00;99.90;;;;;;5075176;28;20047;-58
2022/09/20 05:53:53;;;;;;;13.93;3.60;;;9.20;99.90;;;;;;5075116;28;20496;-58
2022/09/20 05:56:47;;;;;;;13.80;3.72;;;9.20;99.90;;;;;;5075018;28;20557;-58
2022/09/20 05:59:30;;;;;;;11.50;3.67;;;9.30;99.90;;;;;;5075089;28;20056;-58
2022/09/20 06:02:19;;;;;;;12.90;2.65;;;10.30;99.90;;;;;;5075105;28;20045;-58
2022/09/20 06:04:58;;;;;;;7.20;2.67;;;10.10;99.90;;;;;;5075103;28;20037;-58
2022/09/20 06:07:46;;;;;;;9.35;2.53;;;11.00;99.90;;;;;;5073541;28;20036;-59
2022/09/20 06:10:34;;;;;;;11.13;2.60;;;11.70;99.90;;;;;;5075003;28;20112;-63
2022/09/20 06:13:37;;;;;;;9.63;2.88;;;12.40;99.90;;;;;;5074541;28;20048;-62
2022/09/20 06:16:05;;;;;;;23.73;3.10;;;13.20;99.90;;;;;;5074518;28;20492;-58
2022/09/20 06:18:32;;;;;;;22.52;3.30;;;;;;;;;;5073536;28;20047;-58
2022/09/20 06:21:30;;;;;;;22.67;3.78;;;16.50;99.90;;;;;;5073434;28;20408;-58
2022/09/20 06:23:59;;;;;;;21.75;3.22;;;15.30;99.90;;;;;;5074708;28;20040;-58
2022/09/20 06:26:34;;;;;;;14.88;3.05;;;15.70;99.90;;;;;;5074279;28;20393;-58
2022/09/20 06:29:11;;;;;;;6.93;2.25;;;15.90;99.90;;;;;;5074640;28;20121;-58
2022/09/20 06:31:37;;;;;;;7.47;2.00;;;15.90;99.90;;;;;;5073213;28;20044;-63
2022/09/20 06:34:07;;;;;;;7.93;2.00;;;15.40;99.90;;;;;;5074450;28;20427;-63
2022/09/20 06:42:51;;;;;;;5.95;1.90;;;;;;;;;;5074151;28;20059;-63
2022/09/20 06:45:17;;;;;;;7.90;2.25;;;;;;;;;;5073857;28;20040;-63
2022/09/20 06:47:44;;;;;;;7.97;1.73;;;13.90;99.90;;;;;;5073981;28;20481;-63
2022/09/20 06:50:20;;;;;;;3.67;1.60;;;;;;;;;;5073253;28;20118;-63
2022/09/20 06:52:46;;;;;;;6.88;1.88;;;;;;;;;;5073882;28;20073;-62
2022/09/20 06:55:21;;;;;;;6.78;1.90;;;13.70;99.90;;;;;;5073467;28;20053;-63
2022/09/20 06:57:47;;;;;;;7.50;1.70;;;13.50;99.90;;;;;;5073210;28;20075;-58
2022/09/20 07:00:14;;;;;;;9.00;2.10;;;13.60;99.90;;;;;;5073773;28;20515;-62
2022/09/20 07:02:42;;;;;;;6.97;1.80;;;13.60;99.90;;;;;;5073982;28;20070;-63
2022/09/20 07:05:21;;;;;;;8.23;1.70;;;13.40;99.90;;;;;;5073765;28;20060;-63
2022/09/20 07:07:49;;;;;;;8.50;2.10;;;13.10;99.90;;;;;;5073766;28;20063;-63
2022/09/20 07:10:16;;;;;;;8.88;2.03;;;12.70;99.90;;;;;;5072301;28;20049;-63
2022/09/20 07:12:42;;;;;;;9.55;2.15;;;;;;;;;;5072386;28;20492;-63
2022/09/20 07:15:09;;;;;;;8.90;2.17;;;12.30;99.90;;;;;;5073325;28;20041;-63
2022/09/20 07:17:36;;;;;;;9.75;2.30;;;12.50;99.90;;;;;;5073654;28;20028;-63
2022/09/20 07:20:02;;;;;;;10.52;2.10;;;12.40;99.90;;;;;;5073566;28;20056;-64
2022/09/20 07:22:28;;;;;;;8.73;2.10;;;;;;;;;;5072498;28;20084;-64
2022/09/20 07:24:55;;;;;;;6.63;2.20;;;12.10;99.90;;;;;;5073254;28;20098;-58
2022/09/20 07:27:21;;;;;;;8.77;2.60;;;12.30;99.90;;;;;;5073176;28;20451;-58
2022/09/20 07:29:48;;;;;;;7.07;2.75;;;12.50;99.90;;;;;;5073295;28;20045;-58
2022/09/20 07:32:16;;;;;;;9.10;2.60;;;12.30;99.90;;;;;;5073508;28;20048;-57
2022/09/20 07:34:42;;;;;;;11.55;2.25;;;12.80;99.90;;;;;;5073356;28;20044;-57
2022/09/20 07:37:07;;;;;;;7.93;2.35;;;12.60;99.90;;;;;;5072963;28;20048;-57
2022/09/20 07:39:37;;;;;;;9.73;2.00;;;12.00;99.90;;;;;;5073238;28;20174;-57
2022/09/20 07:42:05;;;;;;;9.50;2.22;;;12.90;99.90;;;;;;5073283;28;20048;-57
2022/09/20 07:44:31;;;;;;;6.38;1.90;;;13.00;99.90;;;;;;5073350;28;20087;-58
2022/09/20 07:46:59;;;;;;;7.00;2.10;;;12.70;99.90;;;;;;5073131;28;20068;-57
2022/09/20 07:49:29;;;;;;;10.20;2.47;;;12.60;99.90;;;;;;5073274;28;20028;-57
2022/09/20 07:52:02;;;;;;;14.90;2.65;;;;;;;;;;5071832;28;20036;-57
2022/09/20 07:54:28;;;;;;;8.25;2.53;;;12.80;99.90;;;;;;5073164;28;20037;-58
2022/09/20 07:56:55;;;;;;;7.93;2.78;;;13.10;99.90;;;;;;5072342;28;20152;-58
2022/09/20 07:59:21;;;;;;;7.20;2.10;;;13.10;99.90;;;;;;5073230;28;20044;-58
2022/09/20 08:01:47;;;;;;;7.20;2.35;;;;;;;;;;5072662;28;20041;-58
2022/09/20 08:04:13;;;;;;;10.63;2.22;;;13.70;99.90;;;;;;5072833;28;20043;-58
2022/09/20 08:06:42;;;;;;;7.68;2.15;;;13.90;99.90;;;;;;5072734;28;20049;-59
2022/09/20 08:09:09;;;;;;;7.07;2.20;;;14.10;99.90;;;;;;5072244;28;20587;-58
2022/09/20 08:11:35;;;;;;;7.43;2.10;;;14.30;99.90;;;;;;5072710;28;20080;-58
2022/09/20 08:14:03;;;;;;;10.13;2.13;;;14.00;99.90;;;;;;5072720;28;20452;-58
2022/09/20 08:16:30;;;;;;;8.18;2.20;;;14.70;99.90;;;;;;5071467;28;20045;-58
2022/09/20 08:18:58;;;;;;;10.02;2.25;;;14.90;99.90;;;;;;5071286;28;20080;-58
2022/09/20 08:21:30;;;;;;;9.57;2.20;;;14.90;99.90;;;;;;5072947;28;20132;-58
2022/09/20 08:23:56;;;;;;;5.75;1.70;;;15.00;99.90;;;;;;5072975;28;20127;-58
2022/09/20 08:26:24;;;;;;;5.78;1.60;;;15.00;99.90;;;;;;5072922;28;20052;-58
2022/09/20 08:28:56;;;;;;;9.93;2.25;;;14.80;99.90;;;;;;5071775;28;20040;-58
2022/09/20 08:31:26;;;;;;;;;;;15.00;99.90;;;;;;5070549;28;20055;-58
2022/09/20 08:33:54;;;;;;;6.15;1.90;;;14.90;99.90;;;;;;5072026;28;19924;-58
2022/09/20 08:36:25;;;;;;;6.13;1.70;;;14.80;99.90;;;;;;5071069;28;20049;-59
2022/09/20 08:38:52;;;;;;;9.18;1.80;;;14.50;99.90;;;;;;5072328;28;20396;-64
2022/09/20 08:41:37;;;;;;;8.43;1.70;;;14.80;99.90;;;;;;5072637;28;20082;-64
2022/09/20 08:44:24;;;;;;;7.35;1.92;;;14.80;99.90;;;;;;5072359;28;20037;-64
2022/09/20 08:47:02;;;;;;;8.20;2.03;;;14.80;99.90;;;;;;5070865;28;20507;-64
2022/09/20 08:49:31;;;;;;;6.28;1.90;;;14.70;99.90;;;;;;5072185;28;20037;-64
2022/09/20 08:52:02;;;;;;;8.68;1.80;;;14.70;99.90;;;;;;5072001;28;20052;-63
2022/09/20 08:54:34;;;;;;;8.13;2.13;;;15.00;99.90;;;;;;5072208;28;20080;-63
2022/09/20 08:57:14;;;;;;;7.10;1.73;;;14.60;99.90;;;;;;5072440;28;20032;-62
2022/09/20 08:59:41;;;;;;;6.32;1.80;;;14.80;99.90;;;;;;5072701;28;20150;-62
2022/09/20 09:02:20;;;;;;;6.82;1.90;;;14.50;99.90;;;;;;5072374;28;20048;-62
2022/09/20 09:04:52;;;;;;;10.05;2.00;;;15.50;99.90;;;;;;5070942;28;20138;-63
2022/09/20 09:07:20;;;;;;;4.82;1.60;;;17.40;99.90;;;;;;5072722;28;20433;-63
2022/09/20 09:09:50;;;;;;;7.93;1.77;;;15.40;99.90;;;;;;5072427;28;20036;-62
2022/09/20 09:12:25;;;;;;;5.68;1.60;;;14.90;99.90;;;;;;5072516;28;20114;-62
2022/09/20 09:15:18;;;;;;;8.80;1.73;;;15.40;99.90;;;;;;5075469;28;20040;-63
2022/09/20 09:17:44;;;;;;;5.05;1.30;;;16.00;99.90;;;;;;5071799;28;20056;-62
2022/09/20 09:20:21;;;;;;;4.15;1.33;;;15.70;99.90;;;;;;5075932;28;20040;-62
2022/09/20 09:23:01;;;;;;;11.52;1.88;;;15.60;99.90;;;;;;5075837;28;20098;-62
2022/09/20 09:25:37;;;;;;;6.25;1.50;;;15.90;99.90;;;;;;5075842;28;20072;-63
2022/09/20 09:28:14;;;;;;;9.00;1.70;;;15.90;99.90;;;;;;5076014;28;20033;-63
2022/09/20 09:30:46;;;;;;;3.90;1.40;;;16.00;99.90;;;;;;5075788;28;20044;-63
2022/09/20 09:33:23;;;;;;;6.53;1.50;;;16.40;99.90;;;;;;5075030;28;20056;-63
2022/09/20 09:36:14;;;;;;;7.05;1.50;;;16.70;99.90;;;;;;5075586;28;20048;-63
2022/09/20 09:38:43;;;;;;;8.35;1.65;;;16.70;99.90;;;;;;5075628;28;20054;-63
2022/09/20 09:41:28;;;;;;;5.97;1.50;;;17.00;99.90;;;;;;5075455;28;20052;-57
2022/09/20 09:44:00;;;;;;;6.07;1.58;;;16.80;99.90;;;;;;5075706;28;20102;-57
2022/09/20 09:46:36;;;;;;;4.60;1.40;;;16.70;99.90;;;;;;5075189;28;20391;-57
2022/09/20 09:49:18;;;;;;;5.25;1.40;;;16.80;99.90;;;;;;5075299;28;20496;-57
2022/09/20 09:52:14;;;;;;;5.50;1.55;;;16.70;99.90;;;;;;5075245;28;20132;-57
2022/09/20 09:54:58;;;;;;;5.45;1.40;;;16.80;99.90;;;;;;5075421;28;20040;-57
2022/09/20 09:57:35;;;;;;;4.38;1.38;;;16.40;99.90;;;;;;5075478;28;20074;-57
2022/09/20 10:00:12;;;;;;;5.63;1.90;;;16.50;99.90;;;;;;5075484;28;20189;-57
2022/09/20 10:03:11;;;;;;;7.15;1.88;;;16.60;99.90;;;;;;5074989;28;20049;-58
2022/09/20 10:06:03;;;;;;;7.30;1.73;;;16.50;99.90;;;;;;5074973;28;20102;-64
2022/09/20 10:08:58;;;;;;;8.95;1.90;;;16.90;99.90;;;;;;5075109;28;20439;-64
2022/09/20 10:11:30;;;;;;;6.15;1.52;;;16.90;99.90;;;;;;5074605;28;20397;-63
2022/09/20 10:14:23;;;;;;;7.03;1.50;;;17.10;99.90;;;;;;5074668;28;20071;-63
2022/09/20 10:17:17;;;;;;;10.57;2.00;;;17.10;99.90;;;;;;5074630;28;20056;-65
2022/09/20 10:20:08;;;;;;;6.25;1.70;;;17.10;99.90;;;;;;5057093;28;20063;-64
2022/09/20 10:23:11;;;;;;;3.95;1.30;;;17.20;99.90;;;;;;5074464;28;20101;-64
2022/09/20 10:25:53;;;;;;;7.00;1.50;;;17.30;99.90;;;;;;5074469;28;20039;-64
2022/09/20 10:28:47;;;;;;;9.70;1.70;;;18.00;99.90;;;;;;5074643;28;20048;-64
2022/09/20 10:31:34;;;;;;;4.65;1.40;;;17.40;99.90;;;;;;5050172;28;20115;-64
2022/09/20 10:34:37;;;;;;;5.20;1.60;;;17.60;99.90;;;;;;5073351;28;20051;-63
2022/09/20 10:37:31;;;;;;;7.35;1.80;;;18.40;99.90;;;;;;5073223;28;20041;-63
2022/09/20 10:40:14;;;;;;;5.55;1.52;;;18.00;99.90;;;;;;5072953;28;20051;-65
2022/09/20 10:43:16;;;;;;;4.13;1.25;;;18.20;99.90;;;;;;5072757;28;20076;-65
2022/09/20 10:46:12;;;;;;;5.57;1.60;;;17.90;99.90;;;;;;5063214;28;20531;-64
2022/09/20 10:48:51;;;;;;;8.32;1.65;;;18.30;99.90;;;;;;5072823;28;20032;-63
2022/09/20 10:51:26;;;;;;;5.32;1.60;;;18.50;99.90;;;;;;5073098;28;20075;-64
2022/09/20 10:53:58;;;;;;;7.50;1.48;;;17.80;99.90;;;;;;5073024;28;20045;-63
2022/09/20 10:56:34;;;;;;;7.13;1.58;;;18.30;99.90;;;;;;5071701;28;20373;-63
2022/09/20 10:59:11;;;;;;;5.90;1.73;;;18.10;99.90;;;;;;5071197;28;20101;-63
2022/09/20 11:02:01;;;;;;;7.03;1.50;;;17.60;99.90;;;;;;5072671;28;20088;-63
2022/09/20 11:05:15;;;;;;;6.35;1.63;;;17.50;99.90;;;;;;5072766;28;20481;-63
2022/09/20 11:07:46;;;;;;;8.43;1.45;;;17.30;99.90;;;;;;5070158;28;20048;-64
2022/09/20 11:10:38;;;;;;;5.43;1.67;;;16.60;99.90;;;;;;5073025;28;20047;-64
2022/09/20 11:13:20;;;;;;;4.50;1.25;;;16.60;99.90;;;;;;5072321;28;20496;-64
2022/09/20 11:15:54;;;;;;;5.88;1.65;;;16.50;99.90;;;;;;5072040;28;20084;-63
2022/09/20 11:18:22;;;;;;;6.82;1.75;;;;;;;;;;5072983;28;20048;-65
2022/09/20 11:20:56;;;;;;;5.35;1.50;;;16.20;99.90;;;;;;5072459;28;20079;-64
2022/09/20 11:24:01;;;;;;;7.60;1.55;;;16.50;99.90;;;;;;5072444;28;20052;-64
2022/09/20 11:26:32;;;;;;;5.28;1.50;;;16.20;99.90;;;;;;5063854;28;20044;-64
2022/09/20 11:29:19;;;;;;;8.07;1.88;;;16.60;99.90;;;;;;5072705;28;20040;-64
2022/09/20 11:31:49;;;;;;;8.60;1.65;;;16.70;99.90;;;;;;5072100;28;20179;-63
2022/09/20 11:34:29;;;;;;;5.22;1.63;;;17.40;99.90;;;;;;5072698;28;20040;-64
2022/09/20 11:37:02;;;;;;;7.18;1.70;;;17.50;99.90;;;;;;5071790;28;20080;-64
2022/09/20 11:39:45;;;;;;;8.00;1.75;;;17.50;99.90;;;;;;5072314;28;20141;-64
2022/09/20 11:42:17;;;;;;;6.32;1.50;;;17.90;99.90;;;;;;5070685;28;20113;-64
2022/09/20 11:44:44;;;;;;;8.75;1.60;;;18.40;99.90;;;;;;5069308;28;20049;-64
2022/09/20 11:47:34;;;;;;;7.97;1.58;;;18.20;99.90;;;;;;5052017;28;20041;-64
2022/09/20 11:50:18;;;;;;;7.25;1.70;;;18.20;99.90;;;;;;5052277;28;20401;-64
2022/09/20 11:53:24;;;;;;;4.57;1.30;;;18.30;99.90;;;;;;5051865;28;20132;-64
2022/09/20 11:56:15;;;;;;;8.90;1.77;;;18.20;99.90;;;;;;5064926;28;20178;-65
2022/09/20 11:58:53;;;;;;;4.10;1.50;;;18.10;99.90;;;;;;5069120;28;20094;-65
2022/09/20 12:01:27;;;;;;;12.82;1.58;;;18.10;99.90;;;;;;5073292;28;20127;-65
2022/09/20 12:03:56;;;;;;;5.55;1.45;;;18.40;99.90;;;;;;5072851;28;20072;-64
2022/09/20 12:06:34;;;;;;;5.50;1.55;;;18.60;99.90;;;;;;5072120;28;20049;-65
2022/09/20 12:09:28;;;;;;;6.65;1.60;;;18.40;99.90;;;;;;5071971;28;20032;-65
2022/09/20 12:11:54;;;;;;;5.57;1.50;;;18.30;99.90;;;;;;5072095;28;20053;-64
2022/09/20 12:14:26;;;;;;;5.97;1.40;;;18.50;99.90;;;;;;5071830;28;20044;-65
2022/09/20 12:16:54;;;;;;;7.65;1.55;;;18.90;99.90;;;;;;5072966;28;20041;-64
2022/09/20 12:19:32;;;;;;;10.77;1.80;;;18.10;99.90;;;;;;5073080;28;20072;-64
2022/09/20 12:21:57;;;;;;;6.28;1.40;;;18.30;99.90;;;;;;5072878;28;20037;-64
2022/09/20 12:24:32;;;;;;;11.70;1.90;;;18.00;99.90;;;;;;5072804;28;20059;-64
2022/09/20 12:27:19;;;;;;;7.78;1.60;;;17.90;99.90;;;;;;5072343;28;20131;-64
2022/09/20 12:29:46;;;;;;;6.85;1.73;;;;;;;;;;5072820;28;20064;-63
2022/09/20 12:32:43;;;;;;;6.63;1.70;;;17.70;99.90;;;;;;5071380;28;20053;-64
2022/09/20 12:35:37;;;;;;;8.50;1.98;;;18.10;99.90;;;;;;5072460;28;20044;-64
2022/09/20 12:38:29;;;;;;;6.70;1.67;;;17.50;99.90;;;;;;5072699;28;20068;-64
2022/09/20 12:40:59;;;;;;;5.95;1.80;;;18.00;99.90;;;;;;5072436;28;20094;-64
2022/09/20 12:43:28;;;;;;;3.97;1.40;;;18.50;99.90;;;;;;5070677;28;20049;-64
2022/09/20 12:45:55;;;;;;;6.43;1.50;;;18.30;99.90;;;;;;5072146;28;20089;-64
2022/09/20 12:48:21;;;;;;;6.28;1.80;;;18.30;99.90;;;;;;5073734;28;20115;-64
2022/09/20 12:54:25;;;;;;;4.03;1.15;;;18.10;99.90;;;;;;5072877;28;20044;-65
2022/09/20 12:56:51;;;;;;;4.60;1.50;;;17.60;99.90;;;;;;5076119;28;20571;-63
2022/09/20 12:59:26;;;;;;;6.45;1.60;;;18.00;99.90;;;;;;5076050;28;20481;-63
2022/09/20 13:01:52;;;;;;;;;;;17.90;99.40;;;;;;5076263;28;20477;-65
2022/09/20 13:04:36;;;;;;;;;;;17.90;99.40;;;;;;5076795;28;20002;-64
2022/09/20 13:07:32;;;;;;;6.20;1.75;;;17.80;99.90;;;;;;5074972;28;20007;-64
2022/09/20 13:10:02;;;;;;;6.87;1.57;;;17.70;99.90;;;;;;5075732;28;20039;-65
2022/09/20 13:12:28;;;;;;;4.97;1.45;;;17.60;99.90;;;;;;5075451;28;20060;-64
2022/09/20 13:15:00;;;;;;;3.95;1.38;;;17.80;99.90;;;;;;5075434;28;20518;-63
2022/09/20 13:17:31;;;;;;;5.35;1.45;;;17.70;99.90;;;;;;5075272;28;20044;-57
2022/09/20 13:19:58;;;;;;;6.78;1.60;;;17.50;99.90;;;;;;5075479;28;20488;-57
2022/09/20 13:22:40;;;;;;;7.00;1.60;;;17.60;99.90;;;;;;5075666;28;20446;-58
2022/09/20 13:25:15;;;;;;;7.32;1.58;;;17.40;99.90;;;;;;5075398;28;20039;-57
2022/09/20 13:28:17;;;;;;;5.63;1.60;;;17.00;99.90;;;;;;5075263;28;20052;-57
2022/09/20 13:30:43;;;;;;;6.55;1.63;;;17.30;99.90;;;;;;5053152;28;20439;-57
2022/09/20 13:33:24;;;;;;;7.38;1.73;;;16.80;99.90;;;;;;5019143;28;20088;-57
2022/09/20 13:36:05;;;;;;;8.88;1.70;;;17.10;99.90;;;;;;5052192;28;20052;-57
2022/09/20 13:38:31;;;;;;;6.60;1.50;;;17.20;99.90;;;;;;5053003;28;20041;-57
2022/09/20 13:41:05;;;;;;;7.65;1.80;;;17.50;99.90;;;;;;5052777;28;20574;-57
2022/09/20 13:43:40;;;;;;;6.97;1.70;;;16.70;99.90;;;;;;5052150;28;20115;-57
2022/09/20 13:46:15;;;;;;;6.22;1.83;;;17.60;99.90;;;;;;5052809;28;20047;-57
2022/09/20 13:49:14;;;;;;;6.50;1.60;;;17.00;99.90;;;;;;5049607;28;20525;-57
2022/09/20 13:51:45;;;;;;;6.45;1.70;;;17.20;99.90;;;;;;5052997;28;20062;-57
2022/09/20 13:54:25;;;;;;;9.40;1.70;;;17.10;99.90;;;;;;5052782;28;20455;-57
2022/09/20 13:56:54;;;;;;;5.65;1.48;;;17.80;99.90;;;;;;5052075;28;20516;-58
2022/09/20 13:59:24;;;;;;;8.38;1.75;;;17.40;99.90;;;;;;5051115;28;20133;-58
2022/09/20 14:01:53;;;;;;;5.30;1.30;;;17.50;96.90;;;;;;5032589;28;20041;-58
2022/09/20 14:04:24;;;;;;;5.93;1.45;;;17.50;96.90;;;;;;5051501;28;20053;-58
2022/09/20 14:06:53;;;;;;;7.07;1.50;;;17.50;99.90;;;;;;5052911;28;20124;-66
2022/09/20 14:09:39;;;;;;;6.45;1.60;;;17.80;99.90;;;;;;5073234;28;20424;-65